Aérodrome :
LOGIN :

S'inscrire | Disclaimer

   EN    FR    IT 

 










Légende :    VFR   VFR Marginal   IFR   IFR Intensif   IFR Très Intensif
Visi : 
Plafond : 
>= 8 km
>= 3000ft
5 à 8 km
1000 à 3000 ft
1500m à 5 km
500 à 1000 ft
800 à 1500m
200 à 500 ft
< 800m
< 200 ft
Symboles :   Orages  Brouillard  Fortes neiges  Fortes précipitations  Vent > 20 kt
SIGMETs :   Divers  Orages  Givrage  Turbulence  Onde Orograph.  Cendres Volcan.






- Altitude de l'aérodrome : 821 ft
- Code IATA : LYS


LFLL - Lyon St Exupéry / Satolas

DERNIER METAR :
  • 032000Z AUTO 22008KT 190V260 9999 -RA ///CB 19/14 Q1004 TEMPO VRB15G30KT 2000 TSRA

METARs EXPIRÉS :
  • 031930Z AUTO VRB03KT 9999 FEW036/// BKN082/// BKN110/// ///TCU 20/14 Q1003 TEMPO VRB15G30KT 2000 TSRA SCT010 BKN050CB
  • 031900Z AUTO 13008KT 110V170 9999 FEW044 BKN084 BKN120 19/14 Q1003 TEMPO VRB15G30KT 2000 TSRA SCT010 BKN050CB
  • 031830Z AUTO 18005KT 9999 FEW033 BKN094 BKN120 20/13 Q1003 TEMPO VRB15G30KT 2000 TSRA SCT010 BKN050CB
  • 031800Z AUTO 22005KT 180V260 9999 -RA FEW038/// BKN096/// ///CB 20/14 Q1003 TEMPO VRB15G30KT 2000 TSRA
  • 031730Z AUTO 20011KT 9999 -RA FEW049/// SCT100/// BKN120/// ///CB 22/14 Q1003 TEMPO VRB15G30KT 2000 TSRA

TAF TAF LFLL
Valide du 03 à 18h jusqu'au 05 à 00h UTC


031700Z 0318/0424 18010KT CAVOK
TEMPO 0318/0405 VRB15G25KT 4000 SHRA BKN050TCU
PROB40
TEMPO 0318/0402 VRB15G30KT 2000 TSRA SCT010 BKN050CB
PROB30
TEMPO 0322/0406 BKN010
TEMPO 0409/0413 27010KT
TEMPO 0414/0422 4000 SHRA BKN040TCU
PROB40
TEMPO 0414/0420 VRB15G30KT 2000 TSRA BKN040CB
BECMG 0421/0423 27010KT



MET'MAP, la Météo Aéronautique d'un coup d'oeil ! - Copyright ORBIFLY Décembre 2007 - Disclaimer

ORBIFLY MET'MAP TEAM :

Programmation & Développement : Alexandra Zaïnal
Sur une idée originale de : Baudouin d'Aumeries
Assistance à la programmation : Marc-Olivier Méhu
Soutien technique & logistique : Manuel Goepfert

Contact : metmap@orbifly.com




SOURCES & CREDITS :

   NOAA